Aérodrome :
LOGIN :

S'inscrire | Disclaimer

   EN    FR    IT 

 










Légende :    VFR   VFR Marginal   IFR   IFR Intensif   IFR Très Intensif
Visi : 
Plafond : 
>= 8 km
>= 3000ft
5 à 8 km
1000 à 3000 ft
1500m à 5 km
500 à 1000 ft
800 à 1500m
200 à 500 ft
< 800m
< 200 ft
Symboles :   Orages  Brouillard  Fortes neiges  Fortes précipitations  Vent > 20 kt
SIGMETs :   Divers  Orages  Givrage  Turbulence  Onde Orograph.  Cendres Volcan.






- Altitude de l'aérodrome : 2096 ft
- Code IATA : AUR


LFLW - Aurillac

DERNIER METAR :
  • 032000Z AUTO 21005KT 160V250 9999 ////// 16/12 Q1005

METARs EXPIRÉS :
  • 031930Z AUTO 25004KT 210V290 9999 VCTS ////// 18/12 Q1005
  • 031900Z AUTO 27004KT 220V330 9999 VCTS ////// 18/13 Q1005
  • 031830Z AUTO 23004KT 200V270 9999 ////// 18/13 Q1005
  • 031800Z AUTO VRB03KT 9999 ////// 19/14 Q1005
  • 031730Z AUTO VRB02KT 9999 ////// 19/16 Q1005

Prévision TAF périmée.



MET'MAP, la Météo Aéronautique d'un coup d'oeil ! - Copyright ORBIFLY Décembre 2007 - Disclaimer

ORBIFLY MET'MAP TEAM :

Programmation & Développement : Alexandra Zaïnal
Sur une idée originale de : Baudouin d'Aumeries
Assistance à la programmation : Marc-Olivier Méhu
Soutien technique & logistique : Manuel Goepfert

Contact : metmap@orbifly.com




SOURCES & CREDITS :

   NOAA